WZZ65 EPKK-EDDS
Flight info
| Callsign | WZZ65 |
|---|---|
| Flight time | N/A |
| Altitude | 36000 |
| Route | BABKO L856 VADEX DCT TOVKA DCT KIRDI DCT EBEDA L173 DODIL T127 TEKSI TEKSI1W |
| Aircraft | A21N/M-SDE3FGHIRWY/LB1 |
Departure
| Time | 2026-05-07 14:39 |
|---|---|
| Airport | Kraków John Paul II International Airport (EPKK) |
Arrival
| Time | N/A |
|---|---|
| Airport | Stuttgart Airport (EDDS) |
| Time | Latitude | Longitude | Altitude | Speed | Heading |
|---|---|---|---|---|---|
| 2026-05-07 14:19 | 50.07498 | 19.80492 | 801 ft | 0 kts | 108° |
| 2026-05-07 14:31 | 50.07501 | 19.80482 | 801 ft | 2 kts | 119° |
| 2026-05-07 14:31 | 50.07507 | 19.80460 | 801 ft | 2 kts | 104° |
| 2026-05-07 14:31 | 50.07510 | 19.80445 | 801 ft | 1 kts | 106° |
| 2026-05-07 14:32 | 50.07512 | 19.80422 | 801 ft | 2 kts | 77° |
| 2026-05-07 14:32 | 50.07506 | 19.80401 | 801 ft | 2 kts | 51° |
| 2026-05-07 14:32 | 50.07494 | 19.80386 | 801 ft | 1 kts | 23° |
| 2026-05-07 14:32 | 50.07488 | 19.80383 | 801 ft | 1 kts | 14° |
| 2026-05-07 14:33 | 50.07486 | 19.80382 | 801 ft | 0 kts | 17° |
| 2026-05-07 14:36 | 50.07500 | 19.80390 | 801 ft | 4 kts | 19° |
| 2026-05-07 14:36 | 50.07539 | 19.80410 | 801 ft | 7 kts | 18° |
| 2026-05-07 14:36 | 50.07601 | 19.80418 | 801 ft | 10 kts | 349° |
| 2026-05-07 14:36 | 50.07676 | 19.80392 | 801 ft | 9 kts | 348° |
| 2026-05-07 14:37 | 50.07750 | 19.80367 | 801 ft | 11 kts | 348° |
| 2026-05-07 14:37 | 50.07919 | 19.80311 | 801 ft | 10 kts | 348° |
| 2026-05-07 14:37 | 50.07997 | 19.80284 | 801 ft | 9 kts | 347° |
| 2026-05-07 14:38 | 50.08019 | 19.80250 | 801 ft | 5 kts | 257° |
| 2026-05-07 14:38 | 50.07999 | 19.80110 | 801 ft | 36 kts | 258° |
| 2026-05-07 14:38 | 50.07890 | 19.79330 | 801 ft | 107 kts | 258° |
| 2026-05-07 14:38 | 50.07689 | 19.77884 | 812 ft | 162 kts | 257° |
| 2026-05-07 14:39 | 50.07453 | 19.76197 | 1387 ft | 160 kts | 258° |
| 2026-05-07 14:39 | 50.07218 | 19.74517 | 2027 ft | 158 kts | 258° |
| 2026-05-07 14:39 | 50.06992 | 19.72834 | 2517 ft | 160 kts | 259° |
| 2026-05-07 14:39 | 50.06753 | 19.71061 | 2849 ft | 174 kts | 259° |
| 2026-05-07 14:40 | 50.06494 | 19.69161 | 3163 ft | 190 kts | 259° |
| 2026-05-07 14:40 | 50.06204 | 19.67064 | 3496 ft | 206 kts | 259° |
| 2026-05-07 14:40 | 50.05716 | 19.64882 | 3762 ft | 228 kts | 237° |
| 2026-05-07 14:40 | 50.04438 | 19.63267 | 4109 ft | 251 kts | 203° |
| 2026-05-07 14:41 | 50.02703 | 19.62571 | 4673 ft | 263 kts | 195° |
| 2026-05-07 14:41 | 50.00922 | 19.61936 | 5403 ft | 268 kts | 196° |
| 2026-05-07 14:41 | 49.99095 | 19.61264 | 6226 ft | 269 kts | 196° |
| 2026-05-07 14:41 | 49.97298 | 19.60590 | 7029 ft | 271 kts | 196° |
| 2026-05-07 14:42 | 49.95471 | 19.59902 | 7827 ft | 273 kts | 196° |
| 2026-05-07 14:42 | 49.93616 | 19.59202 | 8621 ft | 275 kts | 196° |
| 2026-05-07 14:42 | 49.91778 | 19.58507 | 9386 ft | 277 kts | 196° |
| 2026-05-07 14:42 | 49.89895 | 19.57795 | 10128 ft | 280 kts | 196° |
| 2026-05-07 14:43 | 49.87978 | 19.57071 | 10704 ft | 289 kts | 196° |
| 2026-05-07 14:43 | 49.86012 | 19.56330 | 11326 ft | 294 kts | 195° |
| 2026-05-07 14:43 | 49.84047 | 19.55591 | 12043 ft | 296 kts | 195° |
| 2026-05-07 14:43 | 49.82023 | 19.54828 | 12748 ft | 298 kts | 195° |
| 2026-05-07 14:44 | 49.80018 | 19.54070 | 13415 ft | 301 kts | 195° |
| 2026-05-07 14:44 | 49.77974 | 19.53300 | 14093 ft | 303 kts | 195° |
| 2026-05-07 14:44 | 49.75948 | 19.52536 | 14754 ft | 305 kts | 195° |
| 2026-05-07 14:44 | 49.73901 | 19.51765 | 15396 ft | 307 kts | 194° |
| 2026-05-07 14:45 | 49.71822 | 19.50982 | 16022 ft | 309 kts | 194° |
| 2026-05-07 14:45 | 49.69712 | 19.50188 | 16651 ft | 311 kts | 194° |
| 2026-05-07 14:45 | 49.67601 | 19.49394 | 17267 ft | 313 kts | 194° |
| 2026-05-07 14:45 | 49.65500 | 19.48605 | 17851 ft | 315 kts | 194° |
| 2026-05-07 14:46 | 49.63353 | 19.47773 | 18427 ft | 317 kts | 197° |
| 2026-05-07 14:46 | 49.61349 | 19.46422 | 18997 ft | 320 kts | 210° |
| 2026-05-07 14:46 | 49.59572 | 19.44344 | 19571 ft | 323 kts | 222° |
| 2026-05-07 14:46 | 49.58014 | 19.41884 | 20137 ft | 325 kts | 224° |
| 2026-05-07 14:47 | 49.56466 | 19.39347 | 20673 ft | 327 kts | 225° |
| 2026-05-07 14:47 | 49.54906 | 19.36782 | 21214 ft | 328 kts | 225° |
| 2026-05-07 14:47 | 49.53345 | 19.34224 | 21761 ft | 329 kts | 224° |
| 2026-05-07 14:47 | 49.51789 | 19.31667 | 22302 ft | 330 kts | 224° |
| 2026-05-07 14:48 | 49.50214 | 19.29087 | 22805 ft | 331 kts | 224° |
| 2026-05-07 14:48 | 49.48650 | 19.26530 | 23278 ft | 333 kts | 224° |
| 2026-05-07 14:48 | 49.47066 | 19.23946 | 23762 ft | 334 kts | 224° |
| 2026-05-07 14:48 | 49.45457 | 19.21331 | 24264 ft | 335 kts | 224° |
| 2026-05-07 14:49 | 49.43864 | 19.18745 | 24714 ft | 338 kts | 224° |
| 2026-05-07 14:49 | 49.42245 | 19.16123 | 25156 ft | 340 kts | 224° |
| 2026-05-07 14:49 | 49.40615 | 19.13483 | 25612 ft | 341 kts | 224° |
| 2026-05-07 14:49 | 49.38994 | 19.10863 | 26036 ft | 343 kts | 224° |
| 2026-05-07 14:50 | 49.37349 | 19.08206 | 26443 ft | 345 kts | 224° |
| 2026-05-07 14:50 | 49.35708 | 19.05557 | 26850 ft | 346 kts | 224° |
| 2026-05-07 14:50 | 49.34039 | 19.02869 | 27240 ft | 348 kts | 224° |
| 2026-05-07 14:50 | 49.32378 | 19.00194 | 27633 ft | 350 kts | 224° |
| 2026-05-07 14:51 | 49.30697 | 18.97491 | 28053 ft | 351 kts | 224° |
| 2026-05-07 14:51 | 49.29019 | 18.94796 | 28456 ft | 352 kts | 224° |
| 2026-05-07 14:51 | 49.27319 | 18.92066 | 28834 ft | 353 kts | 224° |
| 2026-05-07 14:51 | 49.25670 | 18.89314 | 29190 ft | 356 kts | 227° |
| 2026-05-07 14:52 | 49.24105 | 18.86390 | 29566 ft | 358 kts | 229° |
| 2026-05-07 14:52 | 49.22613 | 18.83335 | 29937 ft | 360 kts | 230° |
| 2026-05-07 14:52 | 49.21122 | 18.80255 | 30308 ft | 361 kts | 230° |
| 2026-05-07 14:52 | 49.19616 | 18.77155 | 30658 ft | 362 kts | 230° |
| 2026-05-07 14:53 | 49.18124 | 18.74087 | 30967 ft | 364 kts | 230° |
| 2026-05-07 14:53 | 49.16619 | 18.70990 | 31293 ft | 366 kts | 230° |
| 2026-05-07 14:53 | 49.15099 | 18.67866 | 31653 ft | 366 kts | 231° |
| 2026-05-07 14:53 | 49.13577 | 18.64742 | 31979 ft | 367 kts | 230° |
| 2026-05-07 14:54 | 49.12040 | 18.61585 | 32300 ft | 368 kts | 230° |
| 2026-05-07 14:54 | 49.10516 | 18.58463 | 32606 ft | 369 kts | 230° |
| 2026-05-07 14:54 | 49.08995 | 18.55351 | 32899 ft | 370 kts | 231° |
| 2026-05-07 14:54 | 49.07448 | 18.52193 | 33202 ft | 371 kts | 231° |
| 2026-05-07 14:55 | 49.05901 | 18.49030 | 33492 ft | 371 kts | 231° |
| 2026-05-07 14:55 | 49.04377 | 18.45917 | 33743 ft | 373 kts | 231° |
| 2026-05-07 14:55 | 49.02809 | 18.42723 | 34022 ft | 374 kts | 231° |
| 2026-05-07 14:55 | 49.01273 | 18.39596 | 34276 ft | 375 kts | 230° |
| 2026-05-07 14:56 | 48.99700 | 18.36393 | 34512 ft | 376 kts | 231° |
| 2026-05-07 14:56 | 48.98150 | 18.33246 | 34761 ft | 377 kts | 230° |
| 2026-05-07 14:56 | 48.96584 | 18.30056 | 34979 ft | 377 kts | 230° |
| 2026-05-07 14:56 | 48.95016 | 18.26865 | 35128 ft | 379 kts | 230° |
| 2026-05-07 14:57 | 48.93413 | 18.23612 | 35245 ft | 382 kts | 230° |
| 2026-05-07 14:57 | 48.91827 | 18.20402 | 35363 ft | 384 kts | 230° |
| 2026-05-07 14:57 | 48.90219 | 18.17148 | 35468 ft | 386 kts | 230° |
| 2026-05-07 14:57 | 48.88602 | 18.13897 | 35595 ft | 388 kts | 230° |
| 2026-05-07 14:58 | 48.86972 | 18.10643 | 35703 ft | 390 kts | 230° |
| 2026-05-07 14:58 | 48.85316 | 18.07333 | 35809 ft | 392 kts | 230° |
| 2026-05-07 14:58 | 48.82014 | 18.00730 | 35936 ft | 396 kts | 230° |
| 2026-05-07 14:59 | 48.78679 | 17.94065 | 35937 ft | 396 kts | 230° |
| 2026-05-07 14:59 | 48.75369 | 17.87454 | 35934 ft | 396 kts | 230° |
| 2026-05-07 15:00 | 48.72048 | 17.80833 | 35931 ft | 397 kts | 230° |
| 2026-05-07 15:00 | 48.68702 | 17.74182 | 35936 ft | 398 kts | 230° |
| 2026-05-07 15:01 | 48.65354 | 17.67543 | 35930 ft | 399 kts | 230° |
| 2026-05-07 15:01 | 48.61990 | 17.60888 | 35937 ft | 399 kts | 230° |
| 2026-05-07 15:02 | 48.58638 | 17.54271 | 35918 ft | 400 kts | 230° |
| 2026-05-07 15:02 | 48.55234 | 17.47574 | 35927 ft | 400 kts | 230° |
| 2026-05-07 15:03 | 48.51875 | 17.40971 | 35923 ft | 399 kts | 230° |
| 2026-05-07 15:03 | 48.48506 | 17.34376 | 35925 ft | 399 kts | 230° |
| 2026-05-07 15:04 | 48.45124 | 17.27743 | 35913 ft | 399 kts | 230° |
| 2026-05-07 15:04 | 48.41727 | 17.21104 | 35926 ft | 400 kts | 230° |
| 2026-05-07 15:05 | 48.38325 | 17.14484 | 35924 ft | 401 kts | 230° |
| 2026-05-07 15:05 | 48.34886 | 17.07819 | 35931 ft | 401 kts | 230° |
| 2026-05-07 15:06 | 48.33192 | 17.04537 | 36209 ft | 402 kts | 230° |
| 2026-05-07 15:06 | 48.31580 | 17.01059 | 36080 ft | 401 kts | 235° |
| 2026-05-07 15:06 | 48.29088 | 16.93611 | 35967 ft | 405 kts | 245° |
| 2026-05-07 15:07 | 48.27547 | 16.85464 | 35947 ft | 410 kts | 255° |
| 2026-05-07 15:07 | 48.27060 | 16.76882 | 35937 ft | 416 kts | 264° |
| 2026-05-07 15:08 | 48.27050 | 16.68234 | 35928 ft | 416 kts | 265° |
| 2026-05-07 15:08 | 48.27056 | 16.59586 | 35933 ft | 417 kts | 265° |
| 2026-05-07 15:09 | 48.27054 | 16.50874 | 35928 ft | 416 kts | 265° |
| 2026-05-07 15:09 | 48.27044 | 16.42194 | 35937 ft | 417 kts | 265° |
| 2026-05-07 15:10 | 48.27026 | 16.33558 | 35925 ft | 417 kts | 265° |
| 2026-05-07 15:10 | 48.27002 | 16.24795 | 35941 ft | 416 kts | 265° |
| 2026-05-07 15:11 | 48.26973 | 16.16144 | 35942 ft | 416 kts | 265° |
| 2026-05-07 15:11 | 48.26936 | 16.07540 | 35915 ft | 416 kts | 265° |
| 2026-05-07 15:12 | 48.26891 | 15.98865 | 35923 ft | 415 kts | 265° |
| 2026-05-07 15:12 | 48.26841 | 15.90245 | 35925 ft | 415 kts | 265° |
| 2026-05-07 15:13 | 48.26785 | 15.81587 | 35934 ft | 415 kts | 265° |
| 2026-05-07 15:13 | 48.26720 | 15.72944 | 35933 ft | 416 kts | 265° |
| 2026-05-07 15:14 | 48.26649 | 15.64302 | 35932 ft | 416 kts | 266° |
| 2026-05-07 15:14 | 48.26573 | 15.55645 | 35947 ft | 417 kts | 265° |
| 2026-05-07 15:15 | 48.26490 | 15.46992 | 35947 ft | 418 kts | 266° |
| 2026-05-07 15:15 | 48.26401 | 15.38303 | 35951 ft | 417 kts | 265° |
| 2026-05-07 15:16 | 48.26304 | 15.29596 | 35937 ft | 417 kts | 265° |
| 2026-05-07 15:16 | 48.26203 | 15.20961 | 35939 ft | 418 kts | 265° |
| 2026-05-07 15:17 | 48.26094 | 15.12283 | 35941 ft | 419 kts | 265° |
| 2026-05-07 15:17 | 48.25978 | 15.03559 | 35949 ft | 419 kts | 265° |
| 2026-05-07 15:18 | 48.25855 | 14.94842 | 35949 ft | 419 kts | 265° |
| 2026-05-07 15:18 | 48.25724 | 14.86073 | 35954 ft | 420 kts | 265° |
| 2026-05-07 15:19 | 48.25588 | 14.77347 | 35957 ft | 420 kts | 265° |
| 2026-05-07 15:19 | 48.25444 | 14.68598 | 35958 ft | 420 kts | 265° |
| 2026-05-07 15:20 | 48.25293 | 14.59852 | 35961 ft | 421 kts | 266° |
| 2026-05-07 15:20 | 48.25138 | 14.51164 | 35962 ft | 420 kts | 266° |
| 2026-05-07 15:21 | 48.24974 | 14.42388 | 35965 ft | 421 kts | 265° |
| 2026-05-07 15:21 | 48.24805 | 14.33686 | 35968 ft | 422 kts | 265° |
| 2026-05-07 15:22 | 48.24628 | 14.24852 | 35970 ft | 422 kts | 265° |